Resolute — WTW2234 — position and weather

sailwx.info

Track history (hours):
 
Tides and Currents Weather Stations Pressure Air Temp Water Temp Dewpoint Dewpoint Depression Visibility Wind Speed Wind Dir Waves Ship Positions

Resolute

Owner: Providence Steamboat Co., PROVIDENCE, RI. More information available from US FCC via Universal Licensing System and Coast Guard Vessel Documentation Center.

Last reported at 2015-Mar-03 12:33 UTC. Time now 2015-Mar-03 12:39 UTC.
Position N 40°39' W 074°06'.

Length 30 m; draft 4 m.

Type: Tug. MMSI: 367091630.

Date/timePositionNaut miles runAvg speedWind from/ knotsBaromVisibWave heightAir tempDewpointWater temp
2015-Mar-03 12:33N 40°39' W 074°06'3 2.9
2015-Mar-03 11:32N 40°41' W 074°09'3 2.8
2015-Mar-03 10:33N 40°39' W 074°07'2 2.3
2015-Mar-03 09:33N 40°40' W 074°04'0 0.1
2015-Mar-03 08:33N 40°40' W 074°04'0 0.0
2015-Mar-03 07:34N 40°40' W 074°04'2 1.5
2015-Mar-03 06:33N 40°39' W 074°06'3 2.5
2015-Mar-03 05:33N 40°40' W 074°03'0 0.0
2015-Mar-03 04:33N 40°40' W 074°03'3 2.8
2015-Mar-03 03:33N 40°39' W 074°06'3 2.5
2015-Mar-03 02:33N 40°41' W 074°08'2 2.2
2015-Mar-03 01:32N 40°38' W 074°09'2 1.8
2015-Mar-03 00:28N 40°39' W 074°07'3 3.4
2015-Mar-02 23:33N 40°38' W 074°03'2 2.4
2015-Mar-02 22:33N 40°39' W 074°06'0 0.0
2015-Mar-02 21:33N 40°39' W 074°06'0 0.3
2015-Mar-02 20:33N 40°39' W 074°06'3 2.8
2015-Mar-02 19:33N 40°40' W 074°03'6 5.6
2015-Mar-02 18:33N 40°39' W 074°10'2 0.9
2015-Mar-02 16:10N 40°37' W 074°12'3 5.3
2015-Mar-02 15:33N 40°40' W 074°09'0 0.0
2015-Mar-02 14:32N 40°40' W 074°09'0 0.0
2015-Mar-02 13:32N 40°40' W 074°09'1 0.4
2015-Mar-02 11:33N 40°40' W 074°08'3 3.2
2015-Mar-02 10:33N 40°39' W 074°04'1 0.6
2015-Mar-02 09:33N 40°40' W 074°04'0 0.0
2015-Mar-02 08:33N 40°40' W 074°04'1 1.3
2015-Mar-02 07:33N 40°39' W 074°03'6 6.1
2015-Mar-02 06:34N 40°45' W 074°01'33 5.2
2015-Mar-02 00:13N 41°18' W 073°57'0 0.0
2015-Mar-01 23:26N 41°18' W 073°57'0 0.0
2015-Mar-01 15:12N 41°18' W 073°57'0 0.0
2015-Mar-01 14:03N 41°18' W 073°57'0 0.0
2015-Mar-01 13:04N 41°18' W 073°57'7 3.6
2015-Mar-01 11:08N 41°11' W 073°56'15 5.7
2015-Mar-01 08:33N 40°56' W 073°55'7 5.6
2015-Mar-01 07:20N 40°50' W 073°58'3 4.5
2015-Mar-01 06:34N 40°47' W 074°00'4 3.7
2015-Mar-01 05:33N 40°43' W 074°01'4 3.8
2015-Mar-01 04:33N 40°39' W 074°03'3 2.7
2015-Mar-01 03:33N 40°39' W 074°07'3 2.5
2015-Mar-01 02:31N 40°38' W 074°10'0 0.0
2015-Mar-01 01:33N 40°38' W 074°10'0 0.1
2015-Mar-01 00:11N 40°39' W 074°10'0 0.0
2015-Feb-28 23:26N 40°39' W 074°10'0 0.0
2015-Feb-28 22:14N 40°39' W 074°10'0 0.1
2015-Feb-28 21:23N 40°39' W 074°10'0 0.0
2015-Feb-28 19:28N 40°38' W 074°10'0 0.0
2015-Feb-28 18:27N 40°38' W 074°10'2 2.2
2015-Feb-28 17:31N 40°40' W 074°08'0 0.3
2015-Feb-28 16:33N 40°40' W 074°09'2 1.7
2015-Feb-28 15:33N 40°38' W 074°10'0 0.0
2015-Feb-28 14:33N 40°38' W 074°10'2 2.0
2015-Feb-28 13:17N 40°39' W 074°07'0 0.0
2015-Feb-28 12:07N 40°39' W 074°07'2 3.8
2015-Feb-28 11:33N 40°40' W 074°04'2 2.1
2015-Feb-28 10:33N 40°39' W 074°07'0 0.0
2015-Feb-28 09:33N 40°39' W 074°07'4 3.6
2015-Feb-28 08:33N 40°40' W 074°02'2 2.0
2015-Feb-28 07:34N 40°42' W 074°00'0 0.0
2015-Feb-28 06:33N 40°42' W 074°00'0 0.0
2015-Feb-28 05:33N 40°42' W 074°00'0 0.0
2015-Feb-28 04:33N 40°42' W 074°00'3 3.4
2015-Feb-28 03:33N 40°40' W 074°04'0 0.3
2015-Feb-28 02:33N 40°40' W 074°04'2 1.7
2015-Feb-28 01:33N 40°38' W 074°04'2 2.4
2015-Feb-28 00:33N 40°40' W 074°03'1 1.0
2015-Feb-27 23:33N 40°40' W 074°04'0 0.0
2015-Feb-27 22:33N 40°40' W 074°04'1 0.9
2015-Feb-27 21:33N 40°40' W 074°03'2 2.4
2015-Feb-27 20:33N 40°38' W 074°04'0 0.0
2015-Feb-27 19:33N 40°38' W 074°04'0 0.2
2015-Feb-27 18:33N 40°38' W 074°04'0 0.1
2015-Feb-27 17:32N 40°37' W 074°04'0 0.0
2015-Feb-27 16:33N 40°37' W 074°04'0 0.0
2015-Feb-27 15:33N 40°37' W 074°04'2 2.3
2015-Feb-27 14:33N 40°39' W 074°06'5 5.0
2015-Feb-27 13:33N 40°37' W 074°12'1 1.3
2015-Feb-27 12:33N 40°38' W 074°12'4 3.7
2015-Feb-27 11:33N 40°40' W 074°08'2 2.0
2015-Feb-27 10:33N 40°38' W 074°09'0 0.1
2015-Feb-27 07:33N 40°39' W 074°09'5 4.9
2015-Feb-27 06:33N 40°40' W 074°03'1 0.9
2015-Feb-27 05:33N 40°40' W 074°04'1 0.5
2015-Feb-27 04:33N 40°40' W 074°05'3 2.7
2015-Feb-27 03:32N 40°39' W 074°08'2 2.1
2015-Feb-27 02:31N 40°39' W 074°11'1 0.6
2015-Feb-27 01:30N 40°38' W 074°10'0 0.0
2015-Feb-27 00:32N 40°38' W 074°10'0 0.0
2015-Feb-26 23:20N 40°38' W 074°10'2 0.4
2015-Feb-26 19:20N 40°38' W 074°12'0 0.0
2015-Feb-26 17:12N 40°38' W 074°12'0 0.0
2015-Feb-26 16:06N 40°38' W 074°12'0 0.0
2015-Feb-26 15:25N 40°38' W 074°12'3 1.4
2015-Feb-26 13:16N 40°39' W 074°08'3 4.0
2015-Feb-26 12:32N 40°40' W 074°05'1 0.6
2015-Feb-26 11:33N 40°40' W 074°04'6 6.0
2015-Feb-26 10:29N 40°38' W 074°12'3 2.2
2015-Feb-26 09:07N 40°39' W 074°09'2 2.5
2015-Feb-26 08:21N 40°41' W 074°10'1 0.9
2015-Feb-26 07:30N 40°41' W 074°09'3 2.5
2015-Feb-26 06:19N 40°39' W 074°05'3 4.0
2015-Feb-26 05:28N 40°38' W 074°10'0 0.0
2015-Feb-26 04:29N 40°38' W 074°10'0 0.0
2015-Feb-26 03:29N 40°38' W 074°10'0 0.0
2015-Feb-26 02:29N 40°38' W 074°10'0 0.0
2015-Feb-26 01:09N 40°38' W 074°10'0 0.0
2015-Feb-26 00:30N 40°38' W 074°10'0 0.0
2015-Feb-25 23:30N 40°38' W 074°10'0 0.0
2015-Feb-25 22:28N 40°38' W 074°10'0 0.0
2015-Feb-25 21:17N 40°38' W 074°10'0 0.0
2015-Feb-25 20:23N 40°38' W 074°10'0 0.0
2015-Feb-25 19:26N 40°38' W 074°10'4 3.8
2015-Feb-25 18:27N 40°39' W 074°05'1 1.1
2015-Feb-25 17:29N 40°40' W 074°05'2 2.5
2015-Feb-25 16:32N 40°40' W 074°02'2 2.2
2015-Feb-25 15:33N 40°38' W 074°03'5 4.3
2015-Feb-25 14:28N 40°41' W 074°08'0 0.1
2015-Feb-25 13:32N 40°41' W 074°08'0 0.1
2015-Feb-25 12:33N 40°41' W 074°08'2 2.2
2015-Feb-25 11:33N 40°38' W 074°08'2 1.4
2015-Feb-25 10:26N 40°40' W 074°09'0 0.0
2015-Feb-25 09:27N 40°40' W 074°09'1 1.2
2015-Feb-25 08:32N 40°38' W 074°09'1 1.1
2015-Feb-25 07:33N 40°40' W 074°09'1 1.3
2015-Feb-25 06:33N 40°38' W 074°10'0 0.0
2015-Feb-25 05:33N 40°38' W 074°10'0 0.0
2015-Feb-25 04:33N 40°38' W 074°10'0 0.0
2015-Feb-25 03:33N 40°38' W 074°10'0 0.0
2015-Feb-25 02:33N 40°38' W 074°10'2 1.6
2015-Feb-25 01:33N 40°40' W 074°09'1 0.8
2015-Feb-25 00:33N 40°41' W 074°08'3 2.7
2015-Feb-24 23:33N 40°39' W 074°06'4 4.1
2015-Feb-24 22:33N 40°40' W 074°00'3 3.2
2015-Feb-24 21:33N 40°39' W 074°04'4 4.1
2015-Feb-24 20:32N 40°38' W 074°10'0 0.0
2015-Feb-24 19:16N 40°38' W 074°10'6 4.9
2015-Feb-24 18:06N 40°33' W 074°14'2 2.7
2015-Feb-24 17:13N 40°31' W 074°15'0 0.1
2015-Feb-24 14:23N 40°32' W 074°15'6 2.6
2015-Feb-24 12:14N 40°37' W 074°12'4 5.8
2015-Feb-24 11:33N 40°39' W 074°08'6 6.2
2015-Feb-24 10:34N 40°41' W 074°00'0 0.0
2015-Feb-24 09:34N 40°42' W 074°00'0 0.1
2015-Feb-24 08:33N 40°41' W 074°00'1 0.8
2015-Feb-24 07:33N 40°41' W 074°01'3 2.7
2015-Feb-24 06:33N 40°40' W 074°04'0 0.0
2015-Feb-24 05:33N 40°40' W 074°04'0 0.0
2015-Feb-24 04:33N 40°40' W 074°04'0 0.0
2015-Feb-24 03:33N 40°40' W 074°04'6 5.5
2015-Feb-24 02:32N 40°38' W 074°11'0 0.1
2015-Feb-24 01:33N 40°38' W 074°11'0 0.0
2015-Feb-24 00:33N 40°38' W 074°12'0 0.0
2015-Feb-23 23:33N 40°38' W 074°11'5 4.3
2015-Feb-23 22:23N 40°33' W 074°13'2 1.9
2015-Feb-23 21:32N 40°33' W 074°15'1 0.2
2015-Feb-23 18:29N 40°32' W 074°15'2 0.9
2015-Feb-23 16:11N 40°30' W 074°16'1 0.5
2015-Feb-23 14:32N 40°30' W 074°17'3 1.5
2015-Feb-23 12:25N 40°33' W 074°15'6 1.8
2015-Feb-23 09:10N 40°38' W 074°12'0 0.1
2015-Feb-23 08:32N 40°38' W 074°12'5 1.0
2015-Feb-23 03:33N 40°34' W 074°14'0 0.1
2015-Feb-23 02:05N 40°33' W 074°14'0 0.0
2015-Feb-23 01:31N 40°33' W 074°14'0 0.0
2015-Feb-23 00:33N 40°33' W 074°14'0 0.0
2015-Feb-22 23:23N 40°33' W 074°14'1 1.4
2015-Feb-22 22:32N 40°34' W 074°13'7 6.8
2015-Feb-22 21:33N 40°39' W 074°07'3 2.7
2015-Feb-22 20:33N 40°38' W 074°04'2 1.7
2015-Feb-22 19:33N 40°39' W 074°05'6 0.7
2015-Feb-22 11:32N 40°37' W 074°12'8 8.1
2015-Feb-22 10:33N 40°39' W 074°02'1 0.6
2015-Feb-22 09:33N 40°39' W 074°02'6 5.7
2015-Feb-22 08:33N 40°38' W 074°09'1 0.7
2015-Feb-22 07:33N 40°38' W 074°10'0 0.0
2015-Feb-22 06:33N 40°38' W 074°10'0 0.0
2015-Feb-22 05:33N 40°38' W 074°10'0 0.0
2015-Feb-22 04:31N 40°38' W 074°10'0 0.0
2015-Feb-22 03:33N 40°38' W 074°10'1 0.7
2015-Feb-22 02:33N 40°38' W 074°09'1 1.2
2015-Feb-22 01:33N 40°40' W 074°09'0 0.0
2015-Feb-22 00:33N 40°40' W 074°09'1 1.5
2015-Feb-21 23:33N 40°38' W 074°10'0 0.0
2015-Feb-21 22:33N 40°38' W 074°10'0 0.0
2015-Feb-21 21:33N 40°38' W 074°10'0 0.0
2015-Feb-21 20:33N 40°38' W 074°10'0 0.0
2015-Feb-21 19:33N 40°38' W 074°10'3 3.0
2015-Feb-21 18:29N 40°41' W 074°08'3 3.0
2015-Feb-21 17:31N 40°39' W 074°09'2 2.0
2015-Feb-21 16:33N 40°41' W 074°08'1 0.6
2015-Feb-21 15:33N 40°41' W 074°09'1 0.5
2015-Feb-21 14:33N 40°41' W 074°10'2 1.7
2015-Feb-21 13:32N 40°40' W 074°08'  
Track history (hours):
 
Tides and Currents Weather Stations Pressure Air Temp Water Temp Dewpoint Dewpoint Depression Visibility Wind Speed Wind Dir Waves Ship Positions

Resolute

Owner: Providence Steamboat Co., PROVIDENCE, RI. More information available from US FCC via Universal Licensing System and Coast Guard Vessel Documentation Center.

Last reported at 2015-Mar-03 12:33 UTC. Time now 2015-Mar-03 12:39 UTC.
Position N 40°39' W 074°06'.

Length 30 m; draft 4 m.

Type: Tug. MMSI: 367091630.

Date/timePositionNaut miles runAvg speedWind from/ knotsBaromVisibWave heightAir tempDewpointWater temp
2015-Mar-03 12:33N 40°39' W 074°06'3 2.9
2015-Mar-03 11:32N 40°41' W 074°09'3 2.8
2015-Mar-03 10:33N 40°39' W 074°07'2 2.3
2015-Mar-03 09:33N 40°40' W 074°04'0 0.1
2015-Mar-03 08:33N 40°40' W 074°04'0 0.0
2015-Mar-03 07:34N 40°40' W 074°04'2 1.5
2015-Mar-03 06:33N 40°39' W 074°06'3 2.5
2015-Mar-03 05:33N 40°40' W 074°03'0 0.0
2015-Mar-03 04:33N 40°40' W 074°03'3 2.8
2015-Mar-03 03:33N 40°39' W 074°06'3 2.5
2015-Mar-03 02:33N 40°41' W 074°08'2 2.2
2015-Mar-03 01:32N 40°38' W 074°09'2 1.8
2015-Mar-03 00:28N 40°39' W 074°07'3 3.4
2015-Mar-02 23:33N 40°38' W 074°03'2 2.4
2015-Mar-02 22:33N 40°39' W 074°06'0 0.0
2015-Mar-02 21:33N 40°39' W 074°06'0 0.3
2015-Mar-02 20:33N 40°39' W 074°06'3 2.8
2015-Mar-02 19:33N 40°40' W 074°03'6 5.6
2015-Mar-02 18:33N 40°39' W 074°10'2 0.9
2015-Mar-02 16:10N 40°37' W 074°12'3 5.3
2015-Mar-02 15:33N 40°40' W 074°09'0 0.0
2015-Mar-02 14:32N 40°40' W 074°09'0 0.0
2015-Mar-02 13:32N 40°40' W 074°09'1 0.4
2015-Mar-02 11:33N 40°40' W 074°08'3 3.2
2015-Mar-02 10:33N 40°39' W 074°04'1 0.6
2015-Mar-02 09:33N 40°40' W 074°04'0 0.0
2015-Mar-02 08:33N 40°40' W 074°04'1 1.3
2015-Mar-02 07:33N 40°39' W 074°03'6 6.1
2015-Mar-02 06:34N 40°45' W 074°01'33 5.2
2015-Mar-02 00:13N 41°18' W 073°57'0 0.0
2015-Mar-01 23:26N 41°18' W 073°57'0 0.0
2015-Mar-01 15:12N 41°18' W 073°57'0 0.0
2015-Mar-01 14:03N 41°18' W 073°57'0 0.0
2015-Mar-01 13:04N 41°18' W 073°57'7 3.6
2015-Mar-01 11:08N 41°11' W 073°56'15 5.7
2015-Mar-01 08:33N 40°56' W 073°55'7 5.6
2015-Mar-01 07:20N 40°50' W 073°58'3 4.5
2015-Mar-01 06:34N 40°47' W 074°00'4 3.7
2015-Mar-01 05:33N 40°43' W 074°01'4 3.8
2015-Mar-01 04:33N 40°39' W 074°03'3 2.7
2015-Mar-01 03:33N 40°39' W 074°07'3 2.5
2015-Mar-01 02:31N 40°38' W 074°10'0 0.0
2015-Mar-01 01:33N 40°38' W 074°10'0 0.1
2015-Mar-01 00:11N 40°39' W 074°10'0 0.0
2015-Feb-28 23:26N 40°39' W 074°10'0 0.0
2015-Feb-28 22:14N 40°39' W 074°10'0 0.1
2015-Feb-28 21:23N 40°39' W 074°10'0 0.0
2015-Feb-28 19:28N 40°38' W 074°10'0 0.0
2015-Feb-28 18:27N 40°38' W 074°10'2 2.2
2015-Feb-28 17:31N 40°40' W 074°08'0 0.3
2015-Feb-28 16:33N 40°40' W 074°09'2 1.7
2015-Feb-28 15:33N 40°38' W 074°10'0 0.0
2015-Feb-28 14:33N 40°38' W 074°10'2 2.0
2015-Feb-28 13:17N 40°39' W 074°07'0 0.0
2015-Feb-28 12:07N 40°39' W 074°07'2 3.8
2015-Feb-28 11:33N 40°40' W 074°04'2 2.1
2015-Feb-28 10:33N 40°39' W 074°07'0 0.0
2015-Feb-28 09:33N 40°39' W 074°07'4 3.6
2015-Feb-28 08:33N 40°40' W 074°02'2 2.0
2015-Feb-28 07:34N 40°42' W 074°00'0 0.0
2015-Feb-28 06:33N 40°42' W 074°00'0 0.0
2015-Feb-28 05:33N 40°42' W 074°00'0 0.0
2015-Feb-28 04:33N 40°42' W 074°00'3 3.4
2015-Feb-28 03:33N 40°40' W 074°04'0 0.3
2015-Feb-28 02:33N 40°40' W 074°04'2 1.7
2015-Feb-28 01:33N 40°38' W 074°04'2 2.4
2015-Feb-28 00:33N 40°40' W 074°03'1 1.0
2015-Feb-27 23:33N 40°40' W 074°04'0 0.0
2015-Feb-27 22:33N 40°40' W 074°04'1 0.9
2015-Feb-27 21:33N 40°40' W 074°03'2 2.4
2015-Feb-27 20:33N 40°38' W 074°04'0 0.0
2015-Feb-27 19:33N 40°38' W 074°04'0 0.2
2015-Feb-27 18:33N 40°38' W 074°04'0 0.1
2015-Feb-27 17:32N 40°37' W 074°04'0 0.0
2015-Feb-27 16:33N 40°37' W 074°04'0 0.0
2015-Feb-27 15:33N 40°37' W 074°04'2 2.3
2015-Feb-27 14:33N 40°39' W 074°06'5 5.0
2015-Feb-27 13:33N 40°37' W 074°12'1 1.3
2015-Feb-27 12:33N 40°38' W 074°12'4 3.7
2015-Feb-27 11:33N 40°40' W 074°08'2 2.0
2015-Feb-27 10:33N 40°38' W 074°09'0 0.1
2015-Feb-27 07:33N 40°39' W 074°09'5 4.9
2015-Feb-27 06:33N 40°40' W 074°03'1 0.9
2015-Feb-27 05:33N 40°40' W 074°04'1 0.5
2015-Feb-27 04:33N 40°40' W 074°05'3 2.7
2015-Feb-27 03:32N 40°39' W 074°08'2 2.1
2015-Feb-27 02:31N 40°39' W 074°11'1 0.6
2015-Feb-27 01:30N 40°38' W 074°10'0 0.0
2015-Feb-27 00:32N 40°38' W 074°10'0 0.0
2015-Feb-26 23:20N 40°38' W 074°10'2 0.4
2015-Feb-26 19:20N 40°38' W 074°12'0 0.0
2015-Feb-26 17:12N 40°38' W 074°12'0 0.0
2015-Feb-26 16:06N 40°38' W 074°12'0 0.0
2015-Feb-26 15:25N 40°38' W 074°12'3 1.4
2015-Feb-26 13:16N 40°39' W 074°08'3 4.0
2015-Feb-26 12:32N 40°40' W 074°05'1 0.6
2015-Feb-26 11:33N 40°40' W 074°04'6 6.0
2015-Feb-26 10:29N 40°38' W 074°12'3 2.2
2015-Feb-26 09:07N 40°39' W 074°09'2 2.5
2015-Feb-26 08:21N 40°41' W 074°10'1 0.9
2015-Feb-26 07:30N 40°41' W 074°09'3 2.5
2015-Feb-26 06:19N 40°39' W 074°05'3 4.0
2015-Feb-26 05:28N 40°38' W 074°10'0 0.0
2015-Feb-26 04:29N 40°38' W 074°10'0 0.0
2015-Feb-26 03:29N 40°38' W 074°10'0 0.0
2015-Feb-26 02:29N 40°38' W 074°10'0 0.0
2015-Feb-26 01:09N 40°38' W 074°10'0 0.0
2015-Feb-26 00:30N 40°38' W 074°10'0 0.0
2015-Feb-25 23:30N 40°38' W 074°10'0 0.0
2015-Feb-25 22:28N 40°38' W 074°10'0 0.0
2015-Feb-25 21:17N 40°38' W 074°10'0 0.0
2015-Feb-25 20:23N 40°38' W 074°10'0 0.0
2015-Feb-25 19:26N 40°38' W 074°10'4 3.8
2015-Feb-25 18:27N 40°39' W 074°05'1 1.1
2015-Feb-25 17:29N 40°40' W 074°05'2 2.5
2015-Feb-25 16:32N 40°40' W 074°02'2 2.2
2015-Feb-25 15:33N 40°38' W 074°03'5 4.3
2015-Feb-25 14:28N 40°41' W 074°08'0 0.1
2015-Feb-25 13:32N 40°41' W 074°08'0 0.1
2015-Feb-25 12:33N 40°41' W 074°08'2 2.2
2015-Feb-25 11:33N 40°38' W 074°08'2 1.4
2015-Feb-25 10:26N 40°40' W 074°09'0 0.0
2015-Feb-25 09:27N 40°40' W 074°09'1 1.2
2015-Feb-25 08:32N 40°38' W 074°09'1 1.1
2015-Feb-25 07:33N 40°40' W 074°09'1 1.3
2015-Feb-25 06:33N 40°38' W 074°10'0 0.0
2015-Feb-25 05:33N 40°38' W 074°10'0 0.0
2015-Feb-25 04:33N 40°38' W 074°10'0 0.0
2015-Feb-25 03:33N 40°38' W 074°10'0 0.0
2015-Feb-25 02:33N 40°38' W 074°10'2 1.6
2015-Feb-25 01:33N 40°40' W 074°09'1 0.8
2015-Feb-25 00:33N 40°41' W 074°08'3 2.7
2015-Feb-24 23:33N 40°39' W 074°06'4 4.1
2015-Feb-24 22:33N 40°40' W 074°00'3 3.2
2015-Feb-24 21:33N 40°39' W 074°04'4 4.1
2015-Feb-24 20:32N 40°38' W 074°10'0 0.0
2015-Feb-24 19:16N 40°38' W 074°10'6 4.9
2015-Feb-24 18:06N 40°33' W 074°14'2 2.7
2015-Feb-24 17:13N 40°31' W 074°15'0 0.1
2015-Feb-24 14:23N 40°32' W 074°15'6 2.6
2015-Feb-24 12:14N 40°37' W 074°12'4 5.8
2015-Feb-24 11:33N 40°39' W 074°08'6 6.2
2015-Feb-24 10:34N 40°41' W 074°00'0 0.0
2015-Feb-24 09:34N 40°42' W 074°00'0 0.1
2015-Feb-24 08:33N 40°41' W 074°00'1 0.8
2015-Feb-24 07:33N 40°41' W 074°01'3 2.7
2015-Feb-24 06:33N 40°40' W 074°04'0 0.0
2015-Feb-24 05:33N 40°40' W 074°04'0 0.0
2015-Feb-24 04:33N 40°40' W 074°04'0 0.0
2015-Feb-24 03:33N 40°40' W 074°04'6 5.5
2015-Feb-24 02:32N 40°38' W 074°11'0 0.1
2015-Feb-24 01:33N 40°38' W 074°11'0 0.0
2015-Feb-24 00:33N 40°38' W 074°12'0 0.0
2015-Feb-23 23:33N 40°38' W 074°11'5 4.3
2015-Feb-23 22:23N 40°33' W 074°13'2 1.9
2015-Feb-23 21:32N 40°33' W 074°15'1 0.2
2015-Feb-23 18:29N 40°32' W 074°15'2 0.9
2015-Feb-23 16:11N 40°30' W 074°16'1 0.5
2015-Feb-23 14:32N 40°30' W 074°17'3 1.5
2015-Feb-23 12:25N 40°33' W 074°15'6 1.8
2015-Feb-23 09:10N 40°38' W 074°12'0 0.1
2015-Feb-23 08:32N 40°38' W 074°12'5 1.0
2015-Feb-23 03:33N 40°34' W 074°14'0 0.1
2015-Feb-23 02:05N 40°33' W 074°14'0 0.0
2015-Feb-23 01:31N 40°33' W 074°14'0 0.0
2015-Feb-23 00:33N 40°33' W 074°14'0 0.0
2015-Feb-22 23:23N 40°33' W 074°14'1 1.4
2015-Feb-22 22:32N 40°34' W 074°13'7 6.8
2015-Feb-22 21:33N 40°39' W 074°07'3 2.7
2015-Feb-22 20:33N 40°38' W 074°04'2 1.7
2015-Feb-22 19:33N 40°39' W 074°05'6 0.7
2015-Feb-22 11:32N 40°37' W 074°12'8 8.1
2015-Feb-22 10:33N 40°39' W 074°02'1 0.6
2015-Feb-22 09:33N 40°39' W 074°02'6 5.7
2015-Feb-22 08:33N 40°38' W 074°09'1 0.7
2015-Feb-22 07:33N 40°38' W 074°10'0 0.0
2015-Feb-22 06:33N 40°38' W 074°10'0 0.0
2015-Feb-22 05:33N 40°38' W 074°10'0 0.0
2015-Feb-22 04:31N 40°38' W 074°10'0 0.0
2015-Feb-22 03:33N 40°38' W 074°10'1 0.7
2015-Feb-22 02:33N 40°38' W 074°09'1 1.2
2015-Feb-22 01:33N 40°40' W 074°09'0 0.0
2015-Feb-22 00:33N 40°40' W 074°09'1 1.5
2015-Feb-21 23:33N 40°38' W 074°10'0 0.0
2015-Feb-21 22:33N 40°38' W 074°10'0 0.0
2015-Feb-21 21:33N 40°38' W 074°10'0 0.0
2015-Feb-21 20:33N 40°38' W 074°10'0 0.0
2015-Feb-21 19:33N 40°38' W 074°10'3 3.0
2015-Feb-21 18:29N 40°41' W 074°08'3 3.0
2015-Feb-21 17:31N 40°39' W 074°09'2 2.0
2015-Feb-21 16:33N 40°41' W 074°08'1 0.6
2015-Feb-21 15:33N 40°41' W 074°09'1 0.5
2015-Feb-21 14:33N 40°41' W 074°10'2 1.7
2015-Feb-21 13:32N 40°40' W 074°08'  

Dump ship's entire track history